Trang Airport
VTST : now visible

Airfield :











YOU CAN JOIN US ON...

 
LOGIN :

Register | Disclaimer

   EN    FR    IT 

 









Legend :    VFR   Marginal VFR   IFR   Intensive IFR   Very Intensive IFR
Visi :
Ceiling :
>= 8 km
>= 3000ft
5 to 8 km
1000 to 3000 ft
1500m to 5 km
500 to 1000 ft
800 to 1500m
200 to 500 ft
< 800m
< 200 ft
Symbols :   Thunderstorms  Fog  Heavy snow  Heavy precipitations  Wind > 20 kt






- Airport Elevation : 67 ft
- IATA code : TST


VTST - Trang

CURRENT METAR :
  • 191500Z 04011KT 8000 VCSH FEW018 SCT024 26/24 Q1010 NOSIG

EXPIRED METARs :
  • 191300Z 03004KT 9999 FEW020 25/24 Q1009 NOSIG

TAF TAF VTST
Valid from the 19 at 06:00 until the 20 at 06:00 UTC


190500Z 1906/2006 28005KT 9999 FEW020
TEMPO 1908/1914 24015G25KT 3000 TSRA FEW019CB SCT020 BKN100
BECMG 1922/1924 3000 BR
BECMG 2000/2002 9999 NSW



MET'MAP, your aeronautical weather chart ! - Copyright ORBIFLY December 2007 - Disclaimer

ORBIFLY MET'MAP TEAM :

Programming & Development : Alexandra Zaïnal
Concept & Development : Baudouin d'Aumeries
Co-Development & Prog : Marc-Olivier Méhu
Technical & hardware support : Manuel Goepfert

Contact : metmap@orbifly.com




SOURCES & CREDITS :

   NOAA       Earth
Advisory